Time;durP1;ratioP1;P1;durP2;ratioP2;P2;SDS_P1;SDS_P2;PMS_P1;PMS_P2;Temp;Humidity;BMP_temperature;BMP_pressure;BME280_temperature;BME280_humidity;BME280_pressure;Samples;Min_cycle;Max_cycle;Signal;HPM_P1;HPM_P2
2021/04/18 00:00:37;;;;;;;26.45;19.80;;;6.50;90.20;;;;;;5031648;28;20036;-74
2021/04/18 00:03:03;;;;;;;26.77;20.05;;;6.40;90.40;;;;;;5031525;28;20105;-74
2021/04/18 00:05:29;;;;;;;27.90;20.10;;;6.40;91.00;;;;;;5030248;28;20033;-74
2021/04/18 00:08:02;;;;;;;28.00;19.60;;;6.50;90.50;;;;;;5031470;28;20014;-74
2021/04/18 00:10:33;;;;;;;24.67;19.48;;;6.50;90.50;;;;;;5030312;28;20085;-74
2021/04/18 00:13:00;;;;;;;27.90;20.08;;;6.50;90.80;;;;;;5031428;28;20417;-74
2021/04/18 00:15:26;;;;;;;26.38;19.70;;;6.50;90.80;;;;;;5031462;28;20172;-74
2021/04/18 00:17:52;;;;;;;23.67;18.60;;;6.50;90.70;;;;;;5033415;28;20389;-74
2021/04/18 00:20:19;;;;;;;27.40;20.08;;;6.40;90.50;;;;;;5035213;28;20476;-73
2021/04/18 00:22:45;;;;;;;27.10;20.02;;;6.30;90.90;;;;;;5033516;28;20536;-74
2021/04/18 00:25:13;;;;;;;26.95;19.45;;;6.20;91.80;;;;;;5034815;28;20029;-74
2021/04/18 00:27:39;;;;;;;27.73;19.85;;;6.10;92.10;;;;;;5034779;28;20029;-75
2021/04/18 00:30:09;;;;;;;28.27;18.38;;;6.10;92.20;;;;;;5034789;28;20667;-74
2021/04/18 00:32:36;;;;;;;24.58;17.95;;;6.10;91.90;;;;;;5034602;28;20056;-74
2021/04/18 00:35:02;;;;;;;26.17;18.55;;;6.10;92.50;;;;;;5033524;28;20030;-74
2021/04/18 00:37:28;;;;;;;27.90;20.33;;;6.00;92.80;;;;;;5034728;28;20021;-74
2021/04/18 00:39:54;;;;;;;25.85;18.88;;;6.10;93.00;;;;;;5034499;28;20447;-74
2021/04/18 00:42:19;;;;;;;27.75;18.55;;;6.20;92.60;;;;;;5034581;28;20539;-74
2021/04/18 00:44:45;;;;;;;24.23;17.88;;;6.20;92.00;;;;;;5034520;28;20028;-74
2021/04/18 00:47:12;;;;;;;26.17;18.98;;;6.00;92.60;;;;;;5034452;28;20022;-73
2021/04/18 00:49:38;;;;;;;33.80;19.77;;;6.10;93.60;;;;;;5033154;28;20056;-74
2021/04/18 00:52:04;;;;;;;22.88;18.58;;;6.10;93.40;;;;;;5034421;28;20466;-74
2021/04/18 00:54:30;;;;;;;25.77;19.20;;;6.20;93.30;;;;;;5034306;28;20021;-74
2021/04/18 00:56:56;;;;;;;27.10;20.05;;;6.10;92.20;;;;;;5034245;28;20436;-74
2021/04/18 00:59:22;;;;;;;26.48;19.83;;;6.00;93.40;;;;;;5032854;28;20025;-74
2021/04/18 01:01:48;;;;;;;27.60;19.40;;;6.10;93.80;;;;;;5034183;28;20022;-74
2021/04/18 01:04:13;;;;;;;25.92;19.20;;;6.10;93.10;;;;;;5032802;28;20021;-74
2021/04/18 01:06:39;;;;;;;25.60;19.13;;;6.00;93.00;;;;;;5034136;28;20018;-74
2021/04/18 01:09:05;;;;;;;25.85;19.50;;;6.00;95.10;;;;;;5032841;28;20021;-74
2021/04/18 01:11:31;;;;;;;27.10;19.95;;;6.00;94.30;;;;;;5034052;28;20389;-74
2021/04/18 01:13:57;;;;;;;27.65;20.58;;;6.10;93.50;;;;;;5032782;28;20083;-74
2021/04/18 01:16:22;;;;;;;26.23;18.77;;;6.10;93.50;;;;;;5032752;28;20429;-74
2021/04/18 01:18:48;;;;;;;30.00;21.30;;;6.10;93.50;;;;;;5033836;28;20025;-74
2021/04/18 01:21:14;;;;;;;27.20;20.02;;;6.00;94.00;;;;;;5032646;28;20024;-74
2021/04/18 01:23:41;;;;;;;33.33;20.95;;;5.90;94.60;;;;;;5033755;28;20100;-73
2021/04/18 01:26:08;;;;;;;27.80;20.83;;;6.00;94.30;;;;;;5033733;28;20071;-74
2021/04/18 01:28:34;;;;;;;25.50;19.50;;;6.10;94.50;;;;;;5031787;28;20036;-74
2021/04/18 01:31:02;;;;;;;30.00;21.10;;;6.10;94.10;;;;;;5032450;28;20104;-74
2021/04/18 01:33:28;;;;;;;28.13;21.00;;;6.10;94.50;;;;;;5033496;28;20068;-74
2021/04/18 01:35:55;;;;;;;30.88;20.17;;;6.10;94.60;;;;;;5032251;28;20057;-74
2021/04/18 01:38:21;;;;;;;28.20;21.00;;;6.00;94.00;;;;;;5033400;28;20104;-74
2021/04/18 01:40:47;;;;;;;29.55;21.45;;;6.00;94.10;;;;;;5033461;28;20104;-74
2021/04/18 01:43:18;;;;;;;32.80;22.17;;;6.00;94.20;;;;;;5032150;28;20044;-74
2021/04/18 01:45:46;;;;;;;31.38;22.35;;;6.10;94.70;;;;;;5032166;28;20053;-74
2021/04/18 01:48:12;;;;;;;28.65;21.15;;;6.20;94.50;;;;;;5033319;28;20568;-74
2021/04/18 01:50:43;;;;;;;28.38;21.90;;;6.20;94.40;;;;;;5032001;28;20037;-74
2021/04/18 01:53:09;;;;;;;31.47;20.77;;;6.10;94.80;;;;;;5032015;28;20440;-74
2021/04/18 01:55:36;;;;;;;35.78;21.60;;;6.00;95.70;;;;;;5031834;28;20028;-74
2021/04/18 01:58:03;;;;;;;30.10;23.27;;;5.90;96.10;;;;;;5033061;28;20033;-74
2021/04/18 02:00:29;;;;;;;30.75;21.98;;;6.00;95.20;;;;;;5033075;28;20045;-73
2021/04/18 02:02:54;;;;;;;32.05;23.02;;;5.90;95.70;;;;;;5033015;28;20077;-74
2021/04/18 02:05:20;;;;;;;25.77;20.83;;;5.90;96.40;;;;;;5015228;28;20493;-74
2021/04/18 02:07:46;;;;;;;30.85;22.60;;;6.00;95.80;;;;;;5032911;28;20378;-74
2021/04/18 02:10:14;;;;;;;28.67;21.17;;;5.90;95.50;;;;;;5031623;28;20037;-74
2021/04/18 02:12:41;;;;;;;29.42;22.05;;;6.00;94.70;;;;;;5032842;28;20021;-74
2021/04/18 02:15:08;;;;;;;35.78;23.23;;;6.00;96.10;;;;;;5032773;28;20441;-73
2021/04/18 02:17:34;;;;;;;30.98;22.13;;;6.00;95.40;;;;;;5032744;28;20052;-74
2021/04/18 02:19:59;;;;;;;32.33;23.10;;;5.90;95.70;;;;;;5032666;28;20057;-74
2021/04/18 02:22:25;;;;;;;31.45;23.08;;;5.90;96.40;;;;;;5032937;28;20022;-74
2021/04/18 02:24:51;;;;;;;29.27;22.63;;;6.00;95.20;;;;;;5031483;28;20056;-74
2021/04/18 02:27:17;;;;;;;31.67;23.58;;;5.90;95.10;;;;;;5032538;28;20056;-74
2021/04/18 02:29:43;;;;;;;31.63;23.45;;;5.60;97.50;;;;;;5032673;28;20075;-74
2021/04/18 02:32:08;;;;;;;32.47;24.02;;;5.60;98.80;;;;;;5032545;28;20101;-74
2021/04/18 02:34:34;;;;;;;34.35;23.90;;;5.60;99.00;;;;;;5032415;28;20037;-74
2021/04/18 02:37:00;;;;;;;34.85;23.75;;;5.80;98.70;;;;;;5032409;28;20029;-74
2021/04/18 02:39:26;;;;;;;35.15;25.63;;;5.90;97.50;;;;;;5032304;28;20100;-74
2021/04/18 02:41:51;;;;;;;35.15;24.42;;;5.80;98.30;;;;;;5032366;28;20493;-74
2021/04/18 02:44:17;;;;;;;36.45;25.00;;;5.80;98.50;;;;;;5031088;28;20439;-74
2021/04/18 02:46:43;;;;;;;38.67;25.50;;;5.80;97.80;;;;;;5031024;28;20057;-74
2021/04/18 02:49:09;;;;;;;33.80;24.20;;;5.80;97.40;;;;;;5032215;28;20022;-74
2021/04/18 02:51:36;;;;;;;36.22;25.02;;;5.80;97.80;;;;;;5030879;28;20029;-74
2021/04/18 02:54:02;;;;;;;35.47;23.98;;;5.80;98.90;;;;;;5030917;28;20166;-74
2021/04/18 02:56:28;;;;;;;34.85;24.83;;;5.80;98.60;;;;;;5032204;28;20100;-74
2021/04/18 02:58:54;;;;;;;37.90;25.08;;;5.80;99.00;;;;;;5032063;28;20029;-74
2021/04/18 03:01:21;;;;;;;36.83;26.00;;;5.70;98.70;;;;;;5030900;28;20071;-74
2021/04/18 03:03:47;;;;;;;37.90;27.27;;;5.70;99.20;;;;;;5032162;28;20022;-74
2021/04/18 03:06:14;;;;;;;38.08;27.15;;;5.60;99.90;;;;;;5032075;28;20028;-74
2021/04/18 03:08:39;;;;;;;42.00;25.70;;;5.70;99.90;;;;;;5030721;28;20021;-74
2021/04/18 03:11:05;;;;;;;42.40;26.40;;;5.60;98.80;;;;;;5032092;28;20428;-74
2021/04/18 03:13:31;;;;;;;36.08;26.52;;;5.50;99.90;;;;;;5030837;28;20032;-74
2021/04/18 03:15:57;;;;;;;37.42;27.40;;;5.50;99.90;;;;;;5032019;28;20049;-74
2021/04/18 03:18:22;;;;;;;34.60;24.90;;;5.60;99.90;;;;;;5031941;28;20477;-74
2021/04/18 03:20:48;;;;;;;36.92;27.23;;;5.60;99.90;;;;;;5031938;28;20491;-73
2021/04/18 03:23:14;;;;;;;36.38;25.65;;;5.70;99.90;;;;;;5030646;28;20060;-74
2021/04/18 03:25:40;;;;;;;27.98;20.48;;;5.60;99.90;;;;;;5030691;28;20056;-74
2021/04/18 03:28:05;;;;;;;27.98;20.48;;;5.30;99.10;;;;;;5031988;28;20026;-74
2021/04/18 03:30:32;;;;;;;31.75;21.45;;;5.10;99.50;;;;;;5030697;28;20366;-74
2021/04/18 03:32:59;;;;;;;34.10;22.23;;;4.90;99.90;;;;;;5030597;28;20036;-74
2021/04/18 03:35:25;;;;;;;31.45;23.00;;;5.00;99.90;;;;;;5031942;28;20109;-74
2021/04/18 03:37:51;;;;;;;32.20;24.60;;;5.20;99.90;;;;;;5030561;28;20436;-74
2021/04/18 03:40:17;;;;;;;36.80;25.77;;;5.20;99.90;;;;;;5031775;28;20030;-74
2021/04/18 03:42:44;;;;;;;32.10;21.80;;;5.20;99.90;;;;;;5031816;28;20022;-74
2021/04/18 03:45:10;;;;;;;35.30;26.52;;;4.90;99.90;;;;;;5031784;28;20045;-74
2021/04/18 03:47:36;;;;;;;35.55;25.52;;;4.90;99.90;;;;;;5030510;28;20025;-74
2021/04/18 03:50:04;;;;;;;36.92;27.30;;;5.00;99.90;;;;;;5031701;28;20116;-74
2021/04/18 03:52:29;;;;;;;28.63;19.35;;;5.10;99.90;;;;;;5032126;28;20033;-74
2021/04/18 03:54:55;;;;;;;33.65;20.30;;;4.90;99.90;;;;;;5035389;28;20076;-74
2021/04/18 03:57:22;;;;;;;31.63;21.13;;;4.70;99.90;;;;;;5034218;28;20033;-74
2021/04/18 03:59:48;;;;;;;32.13;22.25;;;4.70;99.90;;;;;;5034142;28;20151;-74
2021/04/18 04:02:14;;;;;;;35.05;22.23;;;4.80;99.90;;;;;;5034198;28;20079;-75
2021/04/18 04:04:40;;;;;;;31.55;22.25;;;4.90;99.90;;;;;;5033919;28;20034;-74
2021/04/18 04:07:06;;;;;;;38.58;25.00;;;5.00;99.90;;;;;;5017492;28;20132;-74
2021/04/18 04:09:32;;;;;;;42.47;27.88;;;5.10;99.90;;;;;;5034148;28;20028;-74
2021/04/18 04:11:57;;;;;;;51.30;29.75;;;5.00;99.90;;;;;;5035216;28;20025;-74
2021/04/18 04:14:23;;;;;;;41.83;28.00;;;5.10;99.90;;;;;;5035073;28;20025;-73
2021/04/18 04:16:49;;;;;;;43.97;31.20;;;5.20;99.90;;;;;;5035056;28;20090;-74
2021/04/18 04:19:15;;;;;;;39.38;29.27;;;5.20;99.90;;;;;;5033597;28;20366;-74
2021/04/18 04:21:41;;;;;;;39.40;28.92;;;5.40;99.90;;;;;;5033800;28;20136;-74
2021/04/18 04:24:07;;;;;;;49.03;28.40;;;5.30;99.90;;;;;;5033776;28;20072;-74
2021/04/18 04:26:33;;;;;;;41.03;30.23;;;5.30;99.90;;;;;;5034799;28;20048;-74
2021/04/18 04:28:58;;;;;;;43.80;28.17;;;5.40;99.90;;;;;;5033512;28;20037;-74
2021/04/18 04:31:24;;;;;;;47.88;30.27;;;5.20;99.90;;;;;;5034832;28;20029;-74
2021/04/18 04:33:50;;;;;;;44.72;30.58;;;5.40;99.90;;;;;;5034577;28;20497;-73
2021/04/18 04:36:15;;;;;;;45.45;31.08;;;5.40;99.90;;;;;;5034684;28;20148;-74
2021/04/18 04:38:41;;;;;;;42.88;29.83;;;5.30;99.90;;;;;;5033424;28;20388;-75
2021/04/18 04:41:07;;;;;;;41.65;29.05;;;5.30;99.90;;;;;;5033436;28;20440;-74
2021/04/18 04:43:33;;;;;;;41.47;28.50;;;5.30;99.90;;;;;;5033381;28;20034;-74
2021/04/18 04:45:59;;;;;;;44.20;32.05;;;5.30;99.90;;;;;;5034589;28;20116;-74
2021/04/18 04:48:25;;;;;;;41.63;28.85;;;5.40;99.90;;;;;;5033180;28;20033;-74
2021/04/18 04:50:51;;;;;;;44.75;32.33;;;5.40;99.90;;;;;;5033270;28;20105;-74
2021/04/18 04:53:17;;;;;;;46.47;31.00;;;5.30;99.90;;;;;;5033253;28;20029;-74
2021/04/18 04:55:45;;;;;;;45.47;32.08;;;5.50;99.90;;;;;;5033149;28;20112;-73
2021/04/18 04:58:11;;;;;;;44.33;31.25;;;5.50;99.90;;;;;;5032968;28;20449;-74
2021/04/18 05:00:37;;;;;;;43.88;31.08;;;5.50;99.90;;;;;;5034300;28;20057;-74
2021/04/18 05:03:03;;;;;;;46.70;31.52;;;5.40;99.90;;;;;;5033553;28;20057;-73
2021/04/18 05:05:29;;;;;;;48.20;33.08;;;5.40;99.90;;;;;;5034269;28;20418;-73
2021/04/18 05:07:55;;;;;;;47.67;32.72;;;5.20;99.90;;;;;;5016743;28;20141;-74
2021/04/18 05:10:21;;;;;;;48.63;32.13;;;5.30;99.90;;;;;;5034510;28;20104;-73
2021/04/18 05:12:47;;;;;;;48.40;31.88;;;5.30;99.90;;;;;;5033198;28;20022;-74
2021/04/18 05:15:13;;;;;;;48.45;33.13;;;5.40;99.90;;;;;;5034263;28;20018;-73
2021/04/18 05:17:39;;;;;;;49.13;32.65;;;5.40;99.90;;;;;;5034103;28;20033;-74
2021/04/18 05:20:05;;;;;;;47.22;31.50;;;5.30;99.90;;;;;;5034050;28;20036;-74
2021/04/18 05:22:31;;;;;;;49.58;34.05;;;5.30;99.90;;;;;;5032850;28;20028;-73
2021/04/18 05:24:56;;;;;;;53.05;35.83;;;5.20;99.90;;;;;;5032875;28;20473;-74
2021/04/18 05:27:22;;;;;;;49.08;33.08;;;5.20;99.90;;;;;;5033756;28;20017;-74
2021/04/18 05:29:48;;;;;;;50.10;32.78;;;5.30;99.90;;;;;;5032445;28;20021;-74
2021/04/18 05:32:14;;;;;;;48.40;33.28;;;5.40;99.90;;;;;;5033644;28;20052;-74
2021/04/18 05:34:39;;;;;;;47.47;31.67;;;5.20;99.90;;;;;;5036508;22;20567;-75
2021/04/18 05:37:05;;;;;;;54.65;33.67;;;5.00;99.90;;;;;;5012231;28;20053;-75
2021/04/18 05:39:31;;;;;;;50.90;32.28;;;5.10;99.90;;;;;;5012222;28;20072;-75
2021/04/18 05:41:57;;;;;;;48.00;33.72;;;5.10;99.90;;;;;;5013620;28;20485;-75
2021/04/18 05:44:22;;;;;;;51.05;34.17;;;5.00;99.90;;;;;;5028830;28;20501;-75
2021/04/18 05:46:48;;;;;;;47.22;34.20;;;5.10;99.90;;;;;;5012030;28;20072;-76
2021/04/18 05:49:14;;;;;;;54.05;33.95;;;5.00;99.90;;;;;;5013665;28;20231;-75
2021/04/18 05:51:40;;;;;;;50.47;33.90;;;5.00;99.90;;;;;;5012237;28;20022;-76
2021/04/18 05:54:07;;;;;;;51.15;34.20;;;5.20;99.90;;;;;;5028660;28;20487;-75
2021/04/18 05:56:33;;;;;;;49.88;33.03;;;5.20;99.90;;;;;;5013333;28;20025;-75
2021/04/18 05:58:59;;;;;;;47.95;32.72;;;5.10;99.90;;;;;;5013443;28;20490;-75
2021/04/18 06:01:27;;;;;;;45.50;32.47;;;5.30;99.90;;;;;;5013321;28;20419;-76
2021/04/18 06:03:56;;;;;;;48.05;33.72;;;5.30;99.90;;;;;;5012160;28;20030;-75
2021/04/18 06:06:23;;;;;;;49.08;34.30;;;5.40;99.90;;;;;;5011680;28;20550;-75
2021/04/18 06:08:49;;;;;;;51.58;34.63;;;5.30;99.90;;;;;;5013234;28;20025;-75
2021/04/18 06:11:15;;;;;;;50.58;35.47;;;5.20;99.90;;;;;;5013098;28;20125;-75
2021/04/18 06:13:41;;;;;;;49.08;33.40;;;5.10;99.90;;;;;;5011763;28;20057;-75
2021/04/18 06:16:07;;;;;;;54.05;37.15;;;5.10;99.90;;;;;;5011339;28;20065;-75
2021/04/18 06:18:33;;;;;;;51.45;36.00;;;5.40;99.90;;;;;;5012970;28;20026;-75
2021/04/18 06:20:59;;;;;;;52.15;36.33;;;5.40;99.90;;;;;;5012933;28;20028;-75
2021/04/18 06:23:24;;;;;;;50.80;34.58;;;5.20;99.90;;;;;;5012837;28;20497;-75
2021/04/18 06:25:51;;;;;;;53.10;36.15;;;5.30;99.90;;;;;;5011419;28;20022;-75
2021/04/18 06:28:17;;;;;;;50.38;34.65;;;5.30;99.90;;;;;;5010859;28;20109;-75
2021/04/18 06:30:43;;;;;;;54.67;36.55;;;5.20;99.90;;;;;;5003033;28;20010;-76
2021/04/18 06:33:09;;;;;;;53.20;34.75;;;5.20;99.90;;;;;;5003268;28;20050;-75
2021/04/18 06:35:34;;;;;;;56.60;37.35;;;5.10;99.90;;;;;;4975481;28;20038;-75
2021/04/18 06:38:00;;;;;;;50.97;36.17;;;5.10;99.90;;;;;;5005872;28;20105;-75
2021/04/18 06:40:26;;;;;;;56.10;38.58;;;5.30;99.90;;;;;;5012570;28;20037;-75
2021/04/18 06:42:55;;;;;;;52.58;35.85;;;5.50;99.90;;;;;;5012702;28;20060;-75
2021/04/18 06:45:21;;;;;;;51.80;35.70;;;5.20;99.90;;;;;;5011240;28;20128;-75
2021/04/18 06:47:47;;;;;;;53.22;35.40;;;5.10;99.90;;;;;;5011210;28;20053;-75
2021/04/18 06:50:13;;;;;;;54.42;36.38;;;5.10;99.90;;;;;;5011409;28;20033;-75
2021/04/18 06:52:39;;;;;;;55.42;37.95;;;5.10;99.90;;;;;;5012446;28;20311;-75
2021/04/18 06:55:07;;;;;;;58.10;39.70;;;5.10;99.90;;;;;;5012331;28;20037;-75
2021/04/18 06:57:34;;;;;;;51.20;37.25;;;5.30;99.90;;;;;;5012093;28;20077;-75
2021/04/18 06:59:59;;;;;;;55.63;37.78;;;5.40;99.90;;;;;;4994681;28;20118;-75
2021/04/18 07:02:30;;;;;;;55.83;38.13;;;5.50;99.90;;;;;;5007586;28;20165;-75
2021/04/18 07:05:04;;;;;;;58.95;38.58;;;5.50;99.90;;;;;;4992539;28;20482;-75
2021/04/18 07:07:32;;;;;;;55.03;38.33;;;5.30;99.90;;;;;;4991260;28;20390;-75
2021/04/18 07:09:58;;;;;;;60.00;39.70;;;5.40;99.90;;;;;;4992762;28;20502;-75
2021/04/18 07:12:35;;;;;;;60.95;40.05;;;5.20;99.90;;;;;;4992637;28;20027;-75
2021/04/18 07:15:03;;;;;;;56.60;38.47;;;5.10;99.90;;;;;;4975203;28;20482;-75
2021/04/18 07:17:29;;;;;;;56.08;39.25;;;5.10;99.90;;;;;;4991135;28;20030;-75
2021/04/18 07:20:13;;;;;;;59.40;41.80;;;4.90;99.90;;;;;;4992572;28;20065;-75
2021/04/18 07:22:40;;;;;;;69.20;40.53;;;5.00;99.90;;;;;;4992636;28;20081;-75
2021/04/18 07:25:07;;;;;;;59.50;40.88;;;5.10;99.90;;;;;;4992422;28;20098;-75
2021/04/18 07:27:52;;;;;;;56.58;38.55;;;5.10;99.90;;;;;;4992924;28;20476;-75
2021/04/18 07:30:21;;;;;;;63.03;41.17;;;5.30;99.90;;;;;;4995294;28;20117;-75
2021/04/18 07:33:05;;;;;;;54.67;37.15;;;5.60;99.90;;;;;;4995156;28;20030;-75
2021/04/18 07:35:35;;;;;;;65.53;41.38;;;5.60;99.90;;;;;;4979398;28;20097;-75
2021/04/18 07:38:21;;;;;;;64.50;41.67;;;5.60;99.90;;;;;;4995373;28;20497;-75
2021/04/18 07:40:49;;;;;;;57.22;39.72;;;5.70;99.90;;;;;;4998502;28;20032;-75
2021/04/18 07:43:17;;;;;;;59.00;40.15;;;5.90;99.90;;;;;;5004466;28;20113;-75
2021/04/18 07:45:43;;;;;;;62.30;40.53;;;5.80;99.90;;;;;;5014475;28;20394;-76
2021/04/18 07:48:11;;;;;;;60.78;38.70;;;5.80;99.90;;;;;;4998176;28;20033;-75
2021/04/18 07:50:39;;;;;;;60.85;41.10;;;5.90;99.90;;;;;;4999427;28;20029;-75
2021/04/18 07:53:07;;;;;;;58.70;39.45;;;6.00;99.90;;;;;;4994885;28;20030;-75
2021/04/18 07:55:38;;;;;;;54.53;38.15;;;6.00;99.90;;;;;;4994681;28;20026;-75
2021/04/18 07:58:04;;;;;;;52.95;38.22;;;6.10;99.90;;;;;;5001888;28;20022;-75
2021/04/18 08:00:31;;;;;;;58.50;39.33;;;6.00;99.90;;;;;;5014126;28;20026;-75
2021/04/18 08:02:57;;;;;;;62.40;38.25;;;6.20;99.90;;;;;;5014222;28;20493;-75
2021/04/18 08:05:25;;;;;;;61.05;39.90;;;6.20;99.90;;;;;;5013806;28;20030;-75
2021/04/18 08:08:00;;;;;;;65.43;40.50;;;6.40;99.90;;;;;;5015294;28;20100;-75
2021/04/18 08:10:32;;;;;;;55.25;37.88;;;6.40;99.90;;;;;;5014211;28;20018;-75
2021/04/18 08:13:13;;;;;;;54.60;38.55;;;6.30;99.90;;;;;;5014309;28;20030;-76
2021/04/18 08:16:03;;;;;;;53.13;37.13;;;6.10;99.90;;;;;;4995607;28;20033;-75
2021/04/18 08:18:49;;;;;;;57.17;37.90;;;6.30;99.90;;;;;;5017864;28;20029;-75
2021/04/18 08:21:43;;;;;;;51.83;35.63;;;6.30;99.90;;;;;;5014757;28;20424;-75
2021/04/18 08:24:17;;;;;;;52.33;36.42;;;6.10;99.90;;;;;;5011242;28;20493;-75
2021/04/18 08:27:01;;;;;;;54.33;38.30;;;6.30;99.90;;;;;;5013844;28;20413;-75
2021/04/18 08:29:27;;;;;;;57.00;39.10;;;6.50;99.90;;;;;;5013886;28;20033;-75
2021/04/18 08:32:05;;;;;;;51.25;36.17;;;6.70;99.90;;;;;;5013710;28;20505;-75
2021/04/18 08:34:43;;;;;;;56.80;37.47;;;6.70;99.90;;;;;;5013819;28;20054;-75
2021/04/18 08:37:16;;;;;;;60.67;38.42;;;6.80;99.90;;;;;;5014639;28;20528;-76
2021/04/18 08:39:42;;;;;;;54.15;36.45;;;7.00;99.90;;;;;;5032406;28;20473;-75
2021/04/18 08:42:10;;;;;;;53.47;37.85;;;6.90;99.90;;;;;;5033529;28;20092;-76
2021/04/18 08:44:36;;;;;;;54.75;36.35;;;7.00;99.90;;;;;;5034213;28;20104;-75
2021/04/18 08:47:10;;;;;;;58.53;40.90;;;6.90;99.90;;;;;;5034382;28;20485;-75
2021/04/18 08:49:42;;;;;;;55.38;36.97;;;6.90;99.90;;;;;;5003341;28;20389;-76
2021/04/18 08:52:20;;;;;;;63.60;40.03;;;6.90;99.90;;;;;;4993702;28;20034;-75
2021/04/18 08:54:46;;;;;;;58.08;39.42;;;6.90;99.90;;;;;;4994601;28;20077;-75
2021/04/18 08:57:15;;;;;;;50.60;34.53;;;6.80;99.90;;;;;;4993422;28;20548;-75
2021/04/18 08:59:45;;;;;;;51.78;37.30;;;6.90;99.90;;;;;;4994539;28;20026;-75
2021/04/18 09:02:12;;;;;;;53.67;36.03;;;7.00;99.90;;;;;;5019297;28;20097;-75
2021/04/18 09:04:39;;;;;;;50.70;35.63;;;7.10;99.90;;;;;;4996659;28;20117;-75
2021/04/18 09:07:09;;;;;;;53.75;38.35;;;6.90;99.90;;;;;;4996160;28;20497;-75
2021/04/18 09:09:36;;;;;;;46.22;35.38;;;6.80;99.90;;;;;;5012616;28;20112;-75
2021/04/18 09:12:02;;;;;;;56.35;39.53;;;6.90;99.90;;;;;;5014034;28;20033;-75
2021/04/18 09:14:32;;;;;;;57.60;38.58;;;6.90;99.90;;;;;;5012985;28;20030;-75
2021/04/18 09:17:07;;;;;;;55.15;40.22;;;7.00;99.90;;;;;;5012597;28;20024;-76
2021/04/18 09:19:33;;;;;;;50.55;36.20;;;7.10;99.90;;;;;;5013620;28;20033;-76
2021/04/18 09:22:14;;;;;;;46.75;34.92;;;7.30;99.90;;;;;;5012288;28;20022;-75
2021/04/18 09:24:46;;;;;;;48.00;35.67;;;7.10;99.90;;;;;;5011670;28;20053;-75
2021/04/18 09:27:17;;;;;;;47.92;35.30;;;7.30;99.90;;;;;;5011977;28;20032;-75
2021/04/18 09:30:16;;;;;;;43.22;32.63;;;7.50;99.90;;;;;;5012038;28;20022;-75
2021/04/18 09:32:47;;;;;;;47.45;35.83;;;7.50;99.90;;;;;;4997802;28;20041;-75
2021/04/18 09:35:15;;;;;;;49.30;37.20;;;7.60;99.90;;;;;;5013259;28;20029;-75
2021/04/18 09:37:50;;;;;;;47.05;34.50;;;7.50;99.90;;;;;;5011676;28;20080;-75
2021/04/18 09:40:17;;;;;;;49.40;36.17;;;7.60;99.90;;;;;;5012100;28;20029;-75
2021/04/18 09:42:47;;;;;;;47.97;36.22;;;7.60;99.90;;;;;;5010517;28;20377;-76
2021/04/18 09:45:18;;;;;;;47.72;34.92;;;7.40;99.90;;;;;;4995466;28;20394;-75
2021/04/18 09:47:48;;;;;;;51.90;34.17;;;7.20;99.90;;;;;;4992049;28;20126;-76
2021/04/18 09:50:19;;;;;;;43.55;32.88;;;7.20;99.90;;;;;;4991589;28;20038;-75
2021/04/18 09:52:46;;;;;;;42.45;30.67;;;7.10;99.90;;;;;;4998540;28;20485;-75
2021/04/18 09:55:26;;;;;;;42.08;32.40;;;7.20;99.90;;;;;;5011316;28;20026;-75
2021/04/18 09:57:52;;;;;;;39.03;31.48;;;7.30;99.90;;;;;;5024845;28;20071;-75
2021/04/18 10:00:22;;;;;;;43.17;31.42;;;7.20;99.90;;;;;;5032607;28;20061;-75
2021/04/18 10:03:08;;;;;;;37.42;28.70;;;7.40;99.90;;;;;;5032699;28;20100;-75
2021/04/18 10:05:45;;;;;;;45.28;29.95;;;7.30;99.90;;;;;;5032517;28;20063;-75
2021/04/18 10:08:13;;;;;;;41.42;31.40;;;7.30;99.90;;;;;;5031230;28;20022;-76
2021/04/18 10:10:39;;;;;;;42.95;30.25;;;7.50;99.90;;;;;;5014677;28;20025;-76
2021/04/18 10:13:05;;;;;;;42.58;31.63;;;7.60;99.90;;;;;;5031103;28;20048;-75
2021/04/18 10:15:31;;;;;;;41.65;30.30;;;7.70;99.90;;;;;;5032631;28;20056;-75
2021/04/18 10:17:56;;;;;;;38.60;29.75;;;7.80;99.90;;;;;;5032524;28;20029;-74
2021/04/18 10:20:24;;;;;;;36.03;29.42;;;7.80;99.90;;;;;;5031060;28;20029;-74
2021/04/18 10:23:08;;;;;;;39.17;31.23;;;7.90;99.90;;;;;;5014705;28;20072;-75
2021/04/18 10:25:35;;;;;;;39.13;29.63;;;7.80;99.90;;;;;;5032571;28;20089;-74
2021/04/18 10:28:01;;;;;;;38.92;30.27;;;7.70;99.90;;;;;;5031189;28;20071;-74
2021/04/18 10:30:28;;;;;;;39.90;29.77;;;7.70;99.90;;;;;;5032541;28;20113;-74
2021/04/18 10:32:54;;;;;;;38.38;30.20;;;7.60;99.90;;;;;;5031100;28;20493;-74
2021/04/18 10:35:20;;;;;;;40.60;30.50;;;7.60;99.90;;;;;;5014376;28;20041;-75
2021/04/18 10:37:46;;;;;;;37.72;29.67;;;7.60;99.90;;;;;;5030798;28;20444;-74
2021/04/18 10:40:14;;;;;;;40.03;30.55;;;7.80;99.90;;;;;;5032327;28;20029;-75
2021/04/18 10:42:40;;;;;;;40.20;30.05;;;8.00;99.90;;;;;;5032077;28;20543;-74
2021/04/18 10:45:08;;;;;;;43.25;31.50;;;8.10;99.90;;;;;;5032178;28;20029;-75
2021/04/18 10:47:34;;;;;;;46.25;32.05;;;8.10;99.90;;;;;;5030844;28;20127;-74
2021/04/18 10:50:02;;;;;;;45.88;32.83;;;8.20;99.90;;;;;;5014475;28;20030;-75
2021/04/18 10:52:28;;;;;;;59.30;31.65;;;8.30;99.90;;;;;;5031068;28;20021;-75
2021/04/18 10:54:54;;;;;;;56.60;33.67;;;8.30;98.10;;;;;;5030699;28;20029;-74
2021/04/18 10:57:20;;;;;;;50.92;32.70;;;8.20;99.90;;;;;;5030883;28;20508;-75
2021/04/18 10:59:45;;;;;;;71.13;31.15;;;8.00;98.10;;;;;;5030745;28;20501;-74
2021/04/18 11:02:11;;;;;;;63.80;31.13;;;8.10;97.90;;;;;;5032015;28;20022;-74
2021/04/18 11:04:37;;;;;;;77.20;30.10;;;8.30;97.00;;;;;;5030754;28;20057;-75
2021/04/18 11:07:03;;;;;;;46.78;31.05;;;8.50;95.40;;;;;;5030546;28;20021;-74
2021/04/18 11:09:29;;;;;;;50.75;31.13;;;8.40;93.40;;;;;;5030739;28;20554;-74
2021/04/18 11:11:55;;;;;;;45.28;28.65;;;8.50;94.10;;;;;;5030743;28;20029;-74
2021/04/18 11:14:21;;;;;;;41.50;28.35;;;8.70;92.80;;;;;;5030410;28;20029;-74
2021/04/18 11:16:47;;;;;;;55.13;31.83;;;8.70;90.10;;;;;;5031842;28;20105;-74
2021/04/18 11:19:13;;;;;;;48.47;29.40;;;8.80;90.70;;;;;;5014092;28;20120;-75
2021/04/18 11:21:39;;;;;;;46.35;28.63;;;8.80;87.00;;;;;;5030597;28;20026;-74
2021/04/18 11:24:05;;;;;;;66.35;30.08;;;8.50;90.00;;;;;;5031823;28;20108;-74
2021/04/18 11:26:31;;;;;;;34.95;26.08;;;8.60;88.80;;;;;;5032032;28;20049;-74
2021/04/18 11:28:57;;;;;;;47.70;28.73;;;8.50;89.00;;;;;;5031908;28;20429;-75
2021/04/18 11:31:23;;;;;;;44.22;27.50;;;8.60;89.80;;;;;;5031715;28;20086;-75
2021/04/18 11:33:49;;;;;;;38.70;28.25;;;8.50;90.20;;;;;;5031311;28;20068;-75
2021/04/18 11:36:15;;;;;;;67.25;27.73;;;8.60;90.50;;;;;;5029420;22;20065;-75
2021/04/18 11:38:41;;;;;;;70.18;29.70;;;8.60;90.20;;;;;;5010793;28;20026;-76
2021/04/18 11:41:07;;;;;;;47.05;28.35;;;8.70;90.90;;;;;;5005144;28;20513;-75
2021/04/18 11:43:33;;;;;;;57.92;28.10;;;8.80;90.40;;;;;;5003059;28;20165;-75
2021/04/18 11:45:59;;;;;;;59.78;29.30;;;8.70;90.30;;;;;;4990872;28;20023;-75
2021/04/18 11:48:24;;;;;;;68.82;29.42;;;8.60;90.80;;;;;;4987977;28;20065;-76
2021/04/18 11:50:50;;;;;;;62.15;30.83;;;8.50;91.40;;;;;;5011822;28;20022;-75
2021/04/18 11:53:16;;;;;;;50.95;28.05;;;8.50;90.80;;;;;;5011618;28;20036;-75
2021/04/18 11:55:42;;;;;;;47.90;30.77;;;8.40;90.90;;;;;;5007068;28;20030;-76
2021/04/18 11:58:08;;;;;;;62.22;28.75;;;8.50;91.10;;;;;;5008678;28;20032;-76
2021/04/18 12:00:35;;;;;;;72.28;30.83;;;8.40;88.60;;;;;;5011654;28;20066;-76
2021/04/18 12:03:02;;;;;;;41.70;28.20;;;8.50;88.90;;;;;;5011539;28;20026;-77
2021/04/18 12:05:28;;;;;;;51.03;29.90;;;8.40;88.90;;;;;;5011323;28;20473;-77
2021/04/18 12:07:53;;;;;;;85.32;30.58;;;8.10;89.40;;;;;;5010747;28;20018;-75
2021/04/18 12:10:19;;;;;;;71.93;28.15;;;8.10;88.70;;;;;;5011453;28;20357;-75
2021/04/18 12:12:45;;;;;;;50.35;27.90;;;8.30;89.60;;;;;;5005804;28;20108;-76
2021/04/18 12:15:12;;;;;;;47.40;28.15;;;8.20;88.70;;;;;;4994466;28;20054;-75
2021/04/18 12:17:38;;;;;;;46.08;27.45;;;8.20;87.20;;;;;;4994937;28;20359;-75
2021/04/18 12:20:07;;;;;;;47.97;28.85;;;8.30;88.00;;;;;;4995157;28;20077;-76
2021/04/18 12:22:33;;;;;;;44.10;30.17;;;8.30;87.70;;;;;;4994916;28;20027;-76
2021/04/18 12:24:59;;;;;;;73.35;33.55;;;8.10;88.40;;;;;;4994868;28;20026;-75
2021/04/18 12:27:25;;;;;;;52.92;29.27;;;8.10;89.50;;;;;;4993827;28;20088;-76
2021/04/18 12:29:52;;;;;;;84.53;29.27;;;8.20;89.70;;;;;;4995283;28;20030;-76
2021/04/18 12:32:19;;;;;;;46.88;29.77;;;8.20;88.30;;;;;;4995286;28;20030;-76
2021/04/18 12:34:44;;;;;;;97.68;32.53;;;8.20;88.10;;;;;;4977746;28;20034;-76
2021/04/18 12:37:10;;;;;;;62.20;32.20;;;8.30;87.20;;;;;;4994961;28;20110;-76